Time;durP1;ratioP1;P1;durP2;ratioP2;P2;SDS_P1;SDS_P2;PMS_P1;PMS_P2;Temp;Humidity;BMP_temperature;BMP_pressure;BME280_temperature;BME280_humidity;BME280_pressure;Samples;Min_cycle;Max_cycle;Signal;HPM_P1;HPM_P2
2022/04/27 00:01:10;;;;;;;0.00;0.00;;;5.60;99.90;;;;;;5041681;28;20049;-66
2022/04/27 00:03:36;;;;;;;0.00;0.00;;;5.60;99.90;;;;;;5042824;28;20064;-66
2022/04/27 00:06:02;;;;;;;0.00;0.00;;;5.60;99.90;;;;;;5042592;28;20045;-66
2022/04/27 00:08:27;;;;;;;0.00;0.00;;;5.40;99.90;;;;;;5042074;28;20099;-66
2022/04/27 00:10:53;;;;;;;0.00;0.00;;;5.40;99.90;;;;;;5041020;28;20041;-65
2022/04/27 00:13:18;;;;;;;0.00;0.00;;;5.40;99.90;;;;;;5041677;28;20052;-65
2022/04/27 00:15:44;;;;;;;0.00;0.00;;;5.40;99.90;;;;;;5042502;28;20043;-65
2022/04/27 00:18:10;;;;;;;0.00;0.00;;;4.80;99.90;;;;;;5041171;28;20102;-66
2022/04/27 00:20:35;;;;;;;0.10;0.10;;;5.40;99.90;;;;;;5042804;28;20061;-66
2022/04/27 00:23:01;;;;;;;0.10;0.10;;;5.40;99.90;;;;;;5041844;28;20056;-67
2022/04/27 00:25:26;;;;;;;0.00;0.00;;;5.40;99.90;;;;;;5041191;28;20064;-65
2022/04/27 00:27:52;;;;;;;0.00;0.00;;;5.40;99.90;;;;;;5023514;28;20045;-66
2022/04/27 00:30:18;;;;;;;0.08;0.05;;;5.40;99.90;;;;;;5041504;28;20056;-65
2022/04/27 00:32:43;;;;;;;0.00;0.00;;;5.40;99.90;;;;;;5042273;28;20136;-65
2022/04/27 00:35:09;;;;;;;0.00;0.00;;;5.40;99.90;;;;;;5042321;28;20044;-65
2022/04/27 00:37:35;;;;;;;0.10;0.00;;;5.80;99.90;;;;;;5041668;28;20116;-66
2022/04/27 00:40:00;;;;;;;0.00;0.00;;;5.30;99.90;;;;;;5039547;28;20225;-66
2022/04/27 00:42:26;;;;;;;0.00;0.00;;;5.20;99.90;;;;;;5040314;28;20064;-66
2022/04/27 00:44:52;;;;;;;0.00;0.00;;;5.20;99.90;;;;;;5040195;28;20091;-65
2022/04/27 00:47:19;;;;;;;0.13;0.13;;;5.20;99.90;;;;;;5052136;28;20041;-65
2022/04/27 00:49:52;;;;;;;0.10;0.10;;;5.20;99.90;;;;;;5041788;28;20095;-65
2022/04/27 00:52:19;;;;;;;0.00;0.00;;;5.10;99.90;;;;;;5041367;28;20049;-64
2022/04/27 00:54:48;;;;;;;0.00;0.00;;;5.10;99.90;;;;;;5038464;28;20045;-66
2022/04/27 00:57:13;;;;;;;0.00;0.00;;;5.10;99.90;;;;;;5041226;28;20124;-62
2022/04/27 00:59:39;;;;;;;0.00;0.00;;;5.00;99.90;;;;;;5041487;28;20132;-65
2022/04/27 01:02:05;;;;;;;0.00;0.00;;;4.90;99.90;;;;;;5041054;28;20056;-66
2022/04/27 01:04:35;;;;;;;0.00;0.00;;;4.90;99.90;;;;;;5041185;28;20526;-65
2022/04/27 01:07:01;;;;;;;0.00;0.00;;;4.70;99.90;;;;;;5041191;28;20400;-65
2022/04/27 01:09:29;;;;;;;0.00;0.00;;;4.70;99.90;;;;;;5039759;28;20053;-65
2022/04/27 01:11:59;;;;;;;0.00;0.00;;;4.70;99.90;;;;;;5039951;28;20049;-64
2022/04/27 01:14:25;;;;;;;0.00;0.00;;;4.70;99.90;;;;;;5058558;22;20496;-65
2022/04/27 01:16:55;;;;;;;0.08;0.08;;;4.70;99.90;;;;;;5054404;28;20048;-65
2022/04/27 01:19:23;;;;;;;0.00;0.00;;;4.70;99.90;;;;;;5059794;28;20051;-65
2022/04/27 01:21:50;;;;;;;0.00;0.00;;;4.70;99.90;;;;;;5061082;28;20083;-65
2022/04/27 01:24:20;;;;;;;0.00;0.00;;;4.70;99.90;;;;;;5059669;28;20134;-63
2022/04/27 01:26:48;;;;;;;0.10;0.10;;;4.70;99.90;;;;;;5058447;28;20056;-67
2022/04/27 01:29:18;;;;;;;0.00;0.00;;;4.80;99.90;;;;;;5060768;28;20113;-65
2022/04/27 01:31:45;;;;;;;0.00;0.00;;;4.80;99.90;;;;;;5061281;28;20086;-65
2022/04/27 01:34:11;;;;;;;0.00;0.00;;;4.80;99.90;;;;;;5058759;28;20068;-63
2022/04/27 01:36:37;;;;;;;0.00;0.00;;;4.80;99.90;;;;;;5060896;28;20040;-65
2022/04/27 01:39:03;;;;;;;0.00;0.00;;;4.90;99.90;;;;;;5060219;28;20052;-65
2022/04/27 01:41:29;;;;;;;0.00;0.00;;;4.90;99.90;;;;;;5059971;28;20123;-66
2022/04/27 01:43:54;;;;;;;0.00;0.00;;;5.00;99.90;;;;;;5059088;28;20165;-65
2022/04/27 01:46:20;;;;;;;0.00;0.00;;;5.00;99.90;;;;;;5054733;28;20052;-68
2022/04/27 01:48:45;;;;;;;0.30;0.30;;;5.00;99.90;;;;;;5055944;28;20185;-65
2022/04/27 01:51:11;;;;;;;0.00;0.00;;;5.10;99.90;;;;;;5058581;28;20076;-64
2022/04/27 01:56:21;;;;;;;0.00;0.00;;;5.20;99.90;;;;;;5060321;28;20074;-65
2022/04/27 01:58:47;;;;;;;0.00;0.00;;;5.20;99.90;;;;;;5059303;28;20040;-66
2022/04/27 02:01:13;;;;;;;0.00;0.00;;;5.30;99.90;;;;;;5059968;28;20067;-64
2022/04/27 02:03:39;;;;;;;0.20;0.10;;;5.40;99.90;;;;;;5059175;28;20076;-66
2022/04/27 02:06:06;;;;;;;0.00;0.00;;;5.40;99.90;;;;;;5060479;28;20052;-64
2022/04/27 02:08:32;;;;;;;0.00;0.00;;;5.40;99.90;;;;;;5057560;28;20071;-64
2022/04/27 02:10:57;;;;;;;0.00;0.00;;;5.40;99.90;;;;;;5060128;28;20653;-64
2022/04/27 02:13:25;;;;;;;0.00;0.00;;;5.50;99.90;;;;;;5059816;28;20570;-65
2022/04/27 02:15:52;;;;;;;0.03;0.00;;;5.60;99.90;;;;;;5059684;28;20249;-65
2022/04/27 02:18:19;;;;;;;0.10;0.10;;;5.60;99.90;;;;;;5059427;28;20036;-65
2022/04/27 02:20:45;;;;;;;0.00;0.00;;;5.60;99.90;;;;;;5060559;28;20044;-65
2022/04/27 02:23:11;;;;;;;0.00;0.00;;;5.60;99.90;;;;;;5059687;28;20061;-64
2022/04/27 02:25:37;;;;;;;0.00;0.00;;;5.70;99.90;;;;;;5059131;28;20415;-66
2022/04/27 02:28:05;;;;;;;0.00;0.00;;;5.60;99.90;;;;;;5060185;28;20040;-66
2022/04/27 02:30:32;;;;;;;0.20;0.10;;;5.60;99.90;;;;;;5057955;28;20048;-66
2022/04/27 02:32:58;;;;;;;0.00;0.00;;;5.50;99.90;;;;;;5059431;28;20068;-65
2022/04/27 02:35:24;;;;;;;0.00;0.00;;;5.40;99.90;;;;;;5059605;28;20040;-65
2022/04/27 02:37:49;;;;;;;0.00;0.00;;;5.50;99.90;;;;;;5059103;28;20123;-64
2022/04/27 02:40:15;;;;;;;0.00;0.00;;;5.50;99.90;;;;;;5059155;28;20056;-62
2022/04/27 02:42:41;;;;;;;0.00;0.00;;;5.60;99.90;;;;;;5057838;28;20040;-65
2022/04/27 02:45:07;;;;;;;0.00;0.00;;;5.50;99.90;;;;;;5058531;28;20505;-65
2022/04/27 02:47:32;;;;;;;0.00;0.00;;;5.60;99.90;;;;;;5047011;28;20049;-65
2022/04/27 02:52:42;;;;;;;0.00;0.00;;;6.00;99.90;;;;;;5040174;28;20056;-65
2022/04/27 02:55:08;;;;;;;0.00;0.00;;;5.80;99.90;;;;;;5039338;28;20284;-66
2022/04/27 02:57:33;;;;;;;0.00;0.00;;;5.70;99.90;;;;;;5038788;28;20045;-65
2022/04/27 02:59:59;;;;;;;0.00;0.00;;;5.70;99.90;;;;;;5039530;28;20254;-66
2022/04/27 03:02:25;;;;;;;0.00;0.00;;;5.70;99.90;;;;;;5039620;28;20049;-65
2022/04/27 03:04:50;;;;;;;0.00;0.00;;;5.70;99.90;;;;;;5039847;28;20037;-66
2022/04/27 03:07:16;;;;;;;0.03;0.03;;;5.60;99.90;;;;;;5038651;28;20041;-65
2022/04/27 03:09:41;;;;;;;0.05;0.05;;;5.60;99.90;;;;;;5038841;28;20041;-66
2022/04/27 03:12:08;;;;;;;0.00;0.00;;;5.60;99.90;;;;;;5039861;28;20079;-64
2022/04/27 03:14:34;;;;;;;0.00;0.00;;;5.60;99.90;;;;;;5054719;28;20056;-64
2022/04/27 03:16:59;;;;;;;0.00;0.00;;;5.70;99.90;;;;;;5038706;28;20456;-65
2022/04/27 03:19:25;;;;;;;0.00;0.00;;;5.60;99.90;;;;;;5039433;28;20084;-67
2022/04/27 03:21:51;;;;;;;0.00;0.00;;;5.60;99.90;;;;;;5021365;28;20036;-67
2022/04/27 03:24:17;;;;;;;0.00;0.00;;;5.70;99.90;;;;;;5037830;28;20060;-67
2022/04/27 03:26:43;;;;;;;0.00;0.00;;;5.80;99.90;;;;;;5039553;28;20037;-67
2022/04/27 03:29:08;;;;;;;0.00;0.00;;;5.80;99.90;;;;;;5055035;28;20111;-67
2022/04/27 03:31:34;;;;;;;0.00;0.00;;;5.90;99.90;;;;;;5039399;28;20553;-67
2022/04/27 03:34:00;;;;;;;0.10;0.10;;;5.80;99.90;;;;;;5038673;28;20087;-68
2022/04/27 03:36:26;;;;;;;0.00;0.00;;;5.90;99.90;;;;;;5039352;28;20420;-67
2022/04/27 03:38:52;;;;;;;0.00;0.00;;;5.80;99.90;;;;;;5038567;28;20090;-66
2022/04/27 03:41:20;;;;;;;0.00;0.00;;;6.00;99.90;;;;;;5038959;28;20081;-65
2022/04/27 03:43:46;;;;;;;0.00;0.00;;;5.80;99.90;;;;;;5038991;28;20407;-66
2022/04/27 03:46:12;;;;;;;0.00;0.00;;;5.80;99.90;;;;;;5047839;28;20048;-65
2022/04/27 03:48:38;;;;;;;0.00;0.00;;;5.80;99.90;;;;;;5055052;28;20044;-67
2022/04/27 03:51:04;;;;;;;0.00;0.00;;;5.90;99.90;;;;;;5062134;28;20041;-66
2022/04/27 03:53:30;;;;;;;0.00;0.00;;;6.00;99.90;;;;;;5061334;28;20133;-67
2022/04/27 03:55:55;;;;;;;0.00;0.00;;;5.90;99.90;;;;;;5061669;28;20047;-67
2022/04/27 03:58:21;;;;;;;0.00;0.00;;;6.00;99.90;;;;;;5061693;28;20514;-65
2022/04/27 04:00:46;;;;;;;0.00;0.00;;;6.00;99.90;;;;;;5062591;28;20075;-66
2022/04/27 04:03:12;;;;;;;0.00;0.00;;;6.00;99.90;;;;;;5062013;28;20052;-65
2022/04/27 04:05:38;;;;;;;0.00;0.00;;;6.00;99.90;;;;;;5063257;28;20150;-66
2022/04/27 04:08:04;;;;;;;0.00;0.00;;;5.90;99.90;;;;;;5061017;28;20043;-65
2022/04/27 04:10:30;;;;;;;0.00;0.00;;;5.90;99.90;;;;;;5060936;28;20044;-65
2022/04/27 04:12:56;;;;;;;0.00;0.00;;;5.90;99.90;;;;;;5061284;28;20044;-65
2022/04/27 04:15:21;;;;;;;0.00;0.00;;;5.90;99.90;;;;;;5061602;28;20056;-66
2022/04/27 04:17:47;;;;;;;0.00;0.00;;;5.90;99.90;;;;;;5061065;28;20052;-66
2022/04/27 04:20:14;;;;;;;0.10;0.10;;;5.90;99.90;;;;;;5061873;28;20075;-65
2022/04/27 04:22:41;;;;;;;0.00;0.00;;;6.00;99.90;;;;;;5062315;28;20049;-66
2022/04/27 04:30:36;;;;;;;0.00;0.00;;;5.90;99.90;;;;;;5061887;28;20392;-66
2022/04/27 04:33:01;;;;;;;0.45;0.45;;;6.00;99.90;;;;;;5062141;28;20321;-66
2022/04/27 04:35:27;;;;;;;0.10;0.10;;;6.00;99.90;;;;;;5060020;28;20052;-67
2022/04/27 04:37:53;;;;;;;0.00;0.00;;;5.90;99.90;;;;;;5062004;28;20166;-65
2022/04/27 04:40:19;;;;;;;0.00;0.00;;;5.90;99.90;;;;;;5059836;28;20529;-66
2022/04/27 04:42:44;;;;;;;0.03;0.03;;;5.90;99.90;;;;;;5062014;28;20057;-65
2022/04/27 04:45:10;;;;;;;0.00;0.00;;;5.90;99.90;;;;;;5059715;28;20604;-66
2022/04/27 04:47:35;;;;;;;0.00;0.00;;;6.80;99.90;;;;;;5050895;28;20118;-65
2022/04/27 04:50:01;;;;;;;0.00;0.00;;;5.80;99.90;;;;;;5041050;28;20068;-67
2022/04/27 04:52:27;;;;;;;0.00;0.00;;;5.80;99.90;;;;;;5056728;28;20488;-66
2022/04/27 04:54:52;;;;;;;0.10;0.00;;;5.80;99.90;;;;;;5040700;28;20052;-65
2022/04/27 04:57:18;;;;;;;0.10;0.10;;;5.90;99.90;;;;;;5041328;28;20041;-66
2022/04/27 04:59:44;;;;;;;0.00;0.00;;;5.90;99.90;;;;;;5040591;28;20081;-66
2022/04/27 05:02:10;;;;;;;0.00;0.00;;;5.90;99.90;;;;;;5056661;28;20483;-66
2022/04/27 05:04:35;;;;;;;0.38;0.38;;;7.00;99.90;;;;;;5042067;28;20044;-67
2022/04/27 05:07:01;;;;;;;0.00;0.00;;;6.00;99.90;;;;;;5040817;28;20727;-67
2022/04/27 05:09:26;;;;;;;0.00;0.00;;;6.00;99.90;;;;;;5040351;28;20124;-65
2022/04/27 05:11:52;;;;;;;0.00;0.00;;;6.00;99.90;;;;;;5041441;28;20219;-67
2022/04/27 05:14:18;;;;;;;0.00;0.00;;;6.00;99.90;;;;;;5055887;28;20186;-66
2022/04/27 05:16:43;;;;;;;0.00;0.00;;;6.10;99.90;;;;;;5040476;28;20052;-66
2022/04/27 05:19:09;;;;;;;0.00;0.00;;;6.10;99.90;;;;;;5041358;28;20090;-67
2022/04/27 05:21:34;;;;;;;0.00;0.00;;;6.20;99.90;;;;;;5056546;28;20083;-66
2022/04/27 05:24:00;;;;;;;0.00;0.00;;;6.20;99.90;;;;;;5040107;28;20037;-67
2022/04/27 05:26:26;;;;;;;0.50;0.10;;;6.20;99.90;;;;;;5040271;28;20045;-65
2022/04/27 05:31:54;;;;;;;0.00;0.00;;;6.30;99.90;;;;;;5040263;28;20052;-67
2022/04/27 05:34:24;;;;;;;0.00;0.00;;;6.30;99.90;;;;;;5040389;28;20041;-66
2022/04/27 05:36:50;;;;;;;0.00;0.00;;;7.40;99.90;;;;;;5040836;28;20106;-66
2022/04/27 05:39:16;;;;;;;0.00;0.00;;;6.40;99.90;;;;;;5038628;28;20045;-63
2022/04/27 05:41:41;;;;;;;0.00;0.00;;;6.50;99.90;;;;;;5040962;28;20053;-65
2022/04/27 05:44:09;;;;;;;0.00;0.00;;;6.50;99.90;;;;;;5040974;28;20047;-66
2022/04/27 05:46:36;;;;;;;0.00;0.00;;;6.50;99.90;;;;;;5050055;28;20510;-66
2022/04/27 05:49:02;;;;;;;0.00;0.00;;;6.60;99.90;;;;;;5041820;28;20052;-66
2022/04/27 05:51:27;;;;;;;0.30;0.25;;;6.60;99.90;;;;;;5039782;28;20124;-67
2022/04/27 05:53:53;;;;;;;0.17;0.10;;;6.60;99.90;;;;;;5040009;28;20119;-66
2022/04/27 05:56:19;;;;;;;0.00;0.00;;;6.70;99.90;;;;;;5039209;28;20076;-65
2022/04/27 05:58:45;;;;;;;0.00;0.00;;;6.80;99.90;;;;;;5055948;28;20077;-65
2022/04/27 06:01:11;;;;;;;0.00;0.00;;;6.80;99.90;;;;;;5040191;28;20122;-66
2022/04/27 06:03:38;;;;;;;0.00;0.00;;;8.00;99.90;;;;;;5040058;28;20065;-65
2022/04/27 06:06:03;;;;;;;0.00;0.00;;;7.00;99.90;;;;;;5040370;28;20101;-66
2022/04/27 06:08:29;;;;;;;0.00;0.00;;;7.00;99.90;;;;;;5039091;28;20057;-65
2022/04/27 06:10:55;;;;;;;0.00;0.00;;;7.10;99.90;;;;;;5040372;28;20044;-65
2022/04/27 06:13:21;;;;;;;0.00;0.00;;;7.10;99.90;;;;;;5038924;28;20135;-65
2022/04/27 06:15:46;;;;;;;0.00;0.00;;;7.20;99.90;;;;;;5040170;28;20117;-65
2022/04/27 06:18:12;;;;;;;0.00;0.00;;;7.20;99.90;;;;;;5039442;28;20045;-65
2022/04/27 06:20:38;;;;;;;0.00;0.00;;;7.30;99.90;;;;;;5040434;28;20067;-65
2022/04/27 06:23:03;;;;;;;0.00;0.00;;;7.30;99.90;;;;;;5038937;28;20487;-65
2022/04/27 06:25:30;;;;;;;0.00;0.00;;;7.40;99.90;;;;;;5039501;28;20268;-66
2022/04/27 06:27:56;;;;;;;0.00;0.00;;;7.40;99.90;;;;;;5040175;28;20053;-65
2022/04/27 06:30:24;;;;;;;0.00;0.00;;;7.50;99.90;;;;;;5039761;28;20040;-67
2022/04/27 06:32:50;;;;;;;0.00;0.00;;;7.70;99.90;;;;;;5039773;28;20053;-64
2022/04/27 06:35:16;;;;;;;0.00;0.00;;;7.50;99.90;;;;;;5039859;28;20044;-64
2022/04/27 06:37:42;;;;;;;0.00;0.00;;;7.50;99.90;;;;;;5038423;28;20782;-65
2022/04/27 06:40:09;;;;;;;0.00;0.00;;;7.60;99.90;;;;;;5054314;28;20136;-66
2022/04/27 06:42:35;;;;;;;0.00;0.00;;;7.70;99.90;;;;;;5039911;28;20161;-66
2022/04/27 06:45:02;;;;;;;0.00;0.00;;;7.70;99.90;;;;;;5041108;28;20045;-65
2022/04/27 06:47:28;;;;;;;0.00;0.00;;;7.80;99.90;;;;;;5049393;28;20120;-66
2022/04/27 06:49:53;;;;;;;0.00;0.00;;;7.80;99.90;;;;;;5038889;28;20151;-66
2022/04/27 06:52:19;;;;;;;0.00;0.00;;;7.90;99.90;;;;;;5039601;28;20049;-65
2022/04/27 06:54:45;;;;;;;0.00;0.00;;;7.90;99.90;;;;;;5039261;28;20029;-66
2022/04/27 06:57:11;;;;;;;0.00;0.00;;;7.90;99.90;;;;;;5038665;28;20056;-65
2022/04/27 06:59:36;;;;;;;0.00;0.00;;;8.00;99.90;;;;;;5040091;28;20041;-64
2022/04/27 07:02:03;;;;;;;0.00;0.00;;;8.20;99.90;;;;;;5038066;28;20122;-64
2022/04/27 07:04:31;;;;;;;0.00;0.00;;;8.20;99.90;;;;;;5039446;28;20164;-65
2022/04/27 07:06:57;;;;;;;0.00;0.00;;;8.20;99.90;;;;;;5038862;28;20037;-65
2022/04/27 07:09:23;;;;;;;0.00;0.00;;;8.30;99.90;;;;;;5038704;28;20067;-66
2022/04/27 07:11:49;;;;;;;0.00;0.00;;;8.40;99.90;;;;;;5039723;28;20451;-66
2022/04/27 07:14:16;;;;;;;0.00;0.00;;;8.30;99.90;;;;;;5038873;28;20057;-64
2022/04/27 07:16:45;;;;;;;0.00;0.00;;;8.40;99.90;;;;;;5054799;28;20617;-64
2022/04/27 07:19:11;;;;;;;0.00;0.00;;;8.40;99.90;;;;;;5039310;28;20415;-64
2022/04/27 07:21:41;;;;;;;0.00;0.00;;;8.50;99.90;;;;;;5039701;28;20102;-65
2022/04/27 07:24:07;;;;;;;0.00;0.00;;;8.70;99.90;;;;;;5056309;28;20037;-66
2022/04/27 07:26:33;;;;;;;0.00;0.00;;;8.70;99.90;;;;;;5042638;28;20044;-65
2022/04/27 07:28:59;;;;;;;0.00;0.00;;;8.80;99.90;;;;;;5043333;28;20395;-65
2022/04/27 07:31:24;;;;;;;0.00;0.00;;;8.90;99.90;;;;;;5042244;28;20061;-66
2022/04/27 07:33:50;;;;;;;0.00;0.00;;;9.10;99.90;;;;;;5043217;28;20041;-64
2022/04/27 07:36:16;;;;;;;0.00;0.00;;;9.10;99.90;;;;;;5042683;28;20041;-64
2022/04/27 07:38:42;;;;;;;0.00;0.00;;;9.30;99.90;;;;;;5042137;28;20037;-65
2022/04/27 07:41:08;;;;;;;0.00;0.00;;;9.40;99.90;;;;;;5042989;28;20053;-65
2022/04/27 07:43:34;;;;;;;0.00;0.00;;;9.70;99.90;;;;;;5041051;28;20041;-65
2022/04/27 07:46:00;;;;;;;0.00;0.00;;;9.60;99.90;;;;;;5048192;28;20414;-65
2022/04/27 07:48:32;;;;;;;0.00;0.00;;;10.80;99.90;;;;;;5048658;28;20095;-66
2022/04/27 07:50:59;;;;;;;0.10;0.10;;;9.80;99.90;;;;;;5042798;28;20362;-65
2022/04/27 07:53:25;;;;;;;0.00;0.00;;;9.70;99.90;;;;;;5041555;28;20456;-64
2022/04/27 07:55:51;;;;;;;0.00;0.00;;;9.70;99.90;;;;;;5042873;28;20380;-65
2022/04/27 07:58:17;;;;;;;0.00;0.00;;;9.60;99.90;;;;;;5041493;28;20060;-65
2022/04/27 08:00:42;;;;;;;0.00;0.00;;;9.70;99.90;;;;;;5043159;28;20564;-65
2022/04/27 08:03:08;;;;;;;0.00;0.00;;;9.70;99.90;;;;;;5042853;28;20669;-65
2022/04/27 08:05:34;;;;;;;0.10;0.10;;;9.60;99.90;;;;;;5057900;28;20048;-64
2022/04/27 08:08:00;;;;;;;0.00;0.00;;;9.70;99.90;;;;;;5041145;28;20798;-64
2022/04/27 08:10:25;;;;;;;0.00;0.00;;;9.70;99.90;;;;;;5042210;28;20048;-64
2022/04/27 08:12:51;;;;;;;0.00;0.00;;;10.80;99.90;;;;;;5042718;28;20029;-65
2022/04/27 08:15:21;;;;;;;0.00;0.00;;;9.80;99.90;;;;;;5056241;28;20278;-64
2022/04/27 08:17:53;;;;;;;0.00;0.00;;;9.80;99.90;;;;;;5042205;28;20368;-65
2022/04/27 08:23:09;;;;;;;0.00;0.00;;;10.00;99.90;;;;;;5042006;28;20053;-65
2022/04/27 08:25:35;;;;;;;0.00;0.00;;;10.00;99.90;;;;;;5042494;28;20555;-65
2022/04/27 08:28:05;;;;;;;0.00;0.00;;;10.00;99.90;;;;;;5042081;28;20057;-65
2022/04/27 08:30:32;;;;;;;0.00;0.00;;;9.90;99.90;;;;;;5056488;28;20060;-65
2022/04/27 08:33:00;;;;;;;0.00;0.00;;;9.90;99.90;;;;;;5041251;28;20069;-65
2022/04/27 08:35:27;;;;;;;0.00;0.00;;;9.90;99.90;;;;;;5040164;28;20127;-69
2022/04/27 08:37:53;;;;;;;0.00;0.00;;;10.10;99.90;;;;;;5055694;28;20687;-65
2022/04/27 08:40:20;;;;;;;0.00;0.00;;;10.20;99.90;;;;;;5041615;28;20113;-64
2022/04/27 08:42:47;;;;;;;0.00;0.00;;;10.30;99.90;;;;;;5041616;28;20113;-65
2022/04/27 08:45:15;;;;;;;0.00;0.00;;;10.40;99.90;;;;;;5043498;28;20041;-63
2022/04/27 08:47:40;;;;;;;0.00;0.00;;;10.20;99.90;;;;;;5050315;28;20428;-64
2022/04/27 08:50:20;;;;;;;0.00;0.00;;;10.30;99.90;;;;;;5041854;28;20051;-64
2022/04/27 08:52:49;;;;;;;0.00;0.00;;;10.20;99.90;;;;;;5047792;28;20044;-65
2022/04/27 08:55:15;;;;;;;0.00;0.00;;;10.30;99.90;;;;;;5060491;28;20033;-64
2022/04/27 08:57:43;;;;;;;0.00;0.00;;;10.30;99.90;;;;;;5059453;28;20056;-64
2022/04/27 09:00:13;;;;;;;0.00;0.00;;;10.40;99.90;;;;;;5060906;28;20109;-65
2022/04/27 09:02:39;;;;;;;0.00;0.00;;;10.50;99.90;;;;;;5042347;28;20083;-65
2022/04/27 09:05:05;;;;;;;0.00;0.00;;;10.60;99.90;;;;;;5059799;28;20051;-65
2022/04/27 09:07:40;;;;;;;0.00;0.00;;;10.60;99.90;;;;;;5058783;28;20098;-65
2022/04/27 09:10:07;;;;;;;0.00;0.00;;;10.70;99.90;;;;;;5059286;28;20105;-65
2022/04/27 09:12:34;;;;;;;0.00;0.00;;;10.80;99.90;;;;;;5059887;28;20053;-64
2022/04/27 09:15:06;;;;;;;0.00;0.00;;;10.90;99.90;;;;;;5060231;28;20068;-65
2022/04/27 09:23:03;;;;;;;0.00;0.00;;;10.80;99.90;;;;;;5058647;28;20076;-66
2022/04/27 09:25:36;;;;;;;0.00;0.00;;;10.80;99.90;;;;;;5059935;28;20075;-66
2022/04/27 09:28:03;;;;;;;0.00;0.00;;;10.90;99.90;;;;;;5060031;28;20064;-66
2022/04/27 09:30:33;;;;;;;0.00;0.00;;;11.00;99.90;;;;;;5059243;28;20056;-65
2022/04/27 09:32:59;;;;;;;0.00;0.00;;;11.10;99.90;;;;;;5059977;28;20592;-66
2022/04/27 09:35:35;;;;;;;0.00;0.00;;;11.30;99.90;;;;;;5059530;28;20056;-66
2022/04/27 09:38:18;;;;;;;0.00;0.00;;;11.30;99.90;;;;;;5057630;28;20411;-65
2022/04/27 09:40:49;;;;;;;0.00;0.00;;;11.60;99.90;;;;;;5058234;28;20137;-64
2022/04/27 09:43:15;;;;;;;0.00;0.00;;;11.10;99.90;;;;;;5074049;28;20132;-65
2022/04/27 09:45:43;;;;;;;0.00;0.00;;;11.10;99.90;;;;;;5064418;28;20037;-65
2022/04/27 09:48:15;;;;;;;0.00;0.00;;;11.10;99.90;;;;;;5049999;28;20067;-65
2022/04/27 09:50:50;;;;;;;0.00;0.00;;;11.00;99.90;;;;;;5058478;28;20033;-65
2022/04/27 09:53:17;;;;;;;0.00;0.00;;;10.80;99.90;;;;;;5058414;28;20052;-63
2022/04/27 09:55:49;;;;;;;0.00;0.00;;;10.80;99.90;;;;;;5058719;28;20446;-65
2022/04/27 09:58:16;;;;;;;0.00;0.00;;;10.90;99.90;;;;;;5058712;28;20523;-65
2022/04/27 10:00:43;;;;;;;0.00;0.00;;;10.90;99.90;;;;;;5059818;28;20040;-65
2022/04/27 10:03:14;;;;;;;0.00;0.00;;;11.20;99.90;;;;;;5059982;28;20045;-66
2022/04/27 10:05:41;;;;;;;0.00;0.00;;;10.90;99.90;;;;;;5058655;28;20145;-65
2022/04/27 10:08:08;;;;;;;0.00;0.00;;;11.10;99.90;;;;;;5058914;28;20048;-65
2022/04/27 10:10:39;;;;;;;0.00;0.00;;;11.40;99.90;;;;;;5059414;28;20040;-66
2022/04/27 10:13:09;;;;;;;0.00;0.00;;;11.20;99.90;;;;;;5058402;28;20049;-65
2022/04/27 10:15:35;;;;;;;0.10;0.10;;;11.20;99.90;;;;;;5058676;28;20052;-65
2022/04/27 10:18:01;;;;;;;0.00;0.00;;;11.30;99.90;;;;;;5059201;28;20535;-65
2022/04/27 10:20:34;;;;;;;0.00;0.00;;;11.60;99.90;;;;;;5058845;28;20067;-66
2022/04/27 10:23:15;;;;;;;0.00;0.00;;;11.70;99.90;;;;;;5058230;28;20048;-67
2022/04/27 10:25:41;;;;;;;0.00;0.00;;;11.60;99.90;;;;;;5059844;28;20040;-72
2022/04/27 10:28:20;;;;;;;0.00;0.00;;;12.30;99.90;;;;;;5060203;28;20065;-67
2022/04/27 10:30:46;;;;;;;0.00;0.00;;;12.10;99.90;;;;;;5060733;28;20101;-65
2022/04/27 10:33:31;;;;;;;0.00;0.00;;;12.20;99.90;;;;;;5059565;28;20437;-66
2022/04/27 10:36:23;;;;;;;0.00;0.00;;;12.30;99.90;;;;;;5058632;28;20129;-62
2022/04/27 10:39:16;;;;;;;0.00;0.00;;;12.40;99.90;;;;;;5058237;28;20084;-64
2022/04/27 10:42:03;;;;;;;0.00;0.00;;;12.60;99.90;;;;;;5058461;28;20415;-64
2022/04/27 10:44:47;;;;;;;0.00;0.00;;;12.30;99.90;;;;;;5058412;28;20065;-63
2022/04/27 10:47:14;;;;;;;0.00;0.00;;;12.30;99.90;;;;;;5050184;28;20590;-64
2022/04/27 10:49:40;;;;;;;0.20;0.10;;;12.10;99.90;;;;;;5038229;28;20676;-64
2022/04/27 10:52:07;;;;;;;0.10;0.10;;;12.10;99.90;;;;;;5052233;28;20420;-65
2022/04/27 10:54:37;;;;;;;0.00;0.00;;;12.30;99.90;;;;;;5037156;28;20073;-63
2022/04/27 10:57:15;;;;;;;0.00;0.00;;;12.10;99.90;;;;;;5039188;28;20057;-63
2022/04/27 10:59:48;;;;;;;0.00;0.00;;;12.10;99.90;;;;;;5042232;28;20051;-63
2022/04/27 11:02:41;;;;;;;0.00;0.00;;;12.20;99.90;;;;;;5042798;28;20131;-63
2022/04/27 11:05:10;;;;;;;0.00;0.00;;;12.40;99.90;;;;;;5041404;28;21214;-66
2022/04/27 11:07:48;;;;;;;0.00;0.00;;;12.60;99.90;;;;;;5060942;28;20698;-62
2022/04/27 11:10:15;;;;;;;0.00;0.00;;;12.60;99.90;;;;;;5060149;28;20071;-63
2022/04/27 11:12:44;;;;;;;0.00;0.00;;;12.30;99.90;;;;;;5061003;28;20052;-63
2022/04/27 11:15:11;;;;;;;0.00;0.00;;;12.40;99.90;;;;;;5060607;28;20060;-64
2022/04/27 11:17:38;;;;;;;0.00;0.00;;;12.20;99.90;;;;;;5062668;28;20056;-63
2022/04/27 11:20:05;;;;;;;0.00;0.00;;;12.30;99.90;;;;;;5059037;28;20060;-63
2022/04/27 11:22:38;;;;;;;0.00;0.00;;;12.20;99.90;;;;;;5060691;28;20048;-63
2022/04/27 11:25:07;;;;;;;0.00;0.00;;;12.30;99.90;;;;;;5062044;28;20064;-62
2022/04/27 11:27:35;;;;;;;0.00;0.00;;;12.00;99.90;;;;;;5061226;28;20055;-62
2022/04/27 11:30:07;;;;;;;0.00;0.00;;;12.30;99.90;;;;;;5061348;28;20069;-63
2022/04/27 11:32:35;;;;;;;0.00;0.00;;;12.30;99.90;;;;;;5045629;28;20212;-63
2022/04/27 11:35:00;;;;;;;0.00;0.00;;;12.10;99.90;;;;;;5061608;28;20064;-63
2022/04/27 11:37:26;;;;;;;0.00;0.00;;;12.60;99.90;;;;;;5061740;28;20095;-64
2022/04/27 11:39:53;;;;;;;0.00;0.00;;;12.80;99.90;;;;;;5063049;28;20120;-63
2022/04/27 11:42:18;;;;;;;0.00;0.00;;;13.20;99.90;;;;;;5062394;28;20799;-63
2022/04/27 11:44:58;;;;;;;0.00;0.00;;;13.40;99.90;;;;;;5060260;28;20056;-63
2022/04/27 11:47:31;;;;;;;0.00;0.00;;;13.10;99.90;;;;;;5035387;28;20114;-63
2022/04/27 11:49:58;;;;;;;0.00;0.00;;;13.10;99.90;;;;;;5042558;28;20120;-62
2022/04/27 11:52:25;;;;;;;0.80;0.28;;;13.00;99.90;;;;;;5041690;28;20474;-64
2022/04/27 11:54:51;;;;;;;0.00;0.00;;;12.50;99.90;;;;;;5042664;28;20451;-62
2022/04/27 11:57:23;;;;;;;0.00;0.00;;;12.80;99.90;;;;;;5042226;28;20080;-63
2022/04/27 11:59:52;;;;;;;0.00;0.00;;;12.80;99.90;;;;;;5057451;28;20366;-62
2022/04/27 12:02:23;;;;;;;0.10;0.10;;;12.90;99.90;;;;;;5041770;28;20354;-62
2022/04/27 12:04:51;;;;;;;0.00;0.00;;;12.70;99.90;;;;;;5057828;28;20087;-62
2022/04/27 12:07:18;;;;;;;0.00;0.00;;;12.90;99.90;;;;;;5040454;28;20133;-62
2022/04/27 12:09:57;;;;;;;0.00;0.00;;;12.70;99.90;;;;;;5041515;28;20051;-62
2022/04/27 12:12:24;;;;;;;0.00;0.00;;;12.80;99.90;;;;;;5041627;28;20119;-62
2022/04/27 12:14:50;;;;;;;0.00;0.00;;;12.80;99.90;;;;;;5042393;28;20788;-62
2022/04/27 12:17:44;;;;;;;0.00;0.00;;;12.70;99.90;;;;;;5041634;28;20056;-61
2022/04/27 12:20:22;;;;;;;0.00;0.00;;;12.70;99.90;;;;;;5042758;28;20261;-61
2022/04/27 12:22:52;;;;;;;0.00;0.00;;;12.70;99.90;;;;;;5041845;28;20431;-62
2022/04/27 12:25:19;;;;;;;0.00;0.00;;;12.50;99.90;;;;;;5056980;28;20045;-61
2022/04/27 12:27:46;;;;;;;0.08;0.08;;;11.90;99.90;;;;;;5042074;28;20041;-62
2022/04/27 12:30:12;;;;;;;0.00;0.00;;;11.90;99.90;;;;;;5057782;28;20403;-61
2022/04/27 12:32:37;;;;;;;0.00;0.00;;;12.00;99.90;;;;;;5057740;28;20041;-62
2022/04/27 12:37:53;;;;;;;0.00;0.00;;;12.10;99.90;;;;;;5041489;28;20116;-62
2022/04/27 12:40:19;;;;;;;0.10;0.10;;;12.20;99.90;;;;;;5041163;28;20063;-62
2022/04/27 12:43:07;;;;;;;0.00;0.00;;;12.10;99.90;;;;;;5042286;28;20041;-62
2022/04/27 12:45:35;;;;;;;0.00;0.00;;;12.00;99.90;;;;;;5057907;28;20045;-62
2022/04/27 12:48:02;;;;;;;0.00;0.00;;;12.30;99.90;;;;;;5052888;28;20105;-62
2022/04/27 12:50:27;;;;;;;0.00;0.00;;;12.40;99.90;;;;;;5061468;28;20111;-62
2022/04/27 12:53:16;;;;;;;0.00;0.00;;;12.50;99.90;;;;;;5061119;28;20601;-62
2022/04/27 12:55:42;;;;;;;0.00;0.00;;;12.50;99.90;;;;;;5061711;28;20080;-62
2022/04/27 12:58:23;;;;;;;0.00;0.00;;;12.50;99.90;;;;;;5061640;28;20189;-62
2022/04/27 13:00:48;;;;;;;0.00;0.00;;;12.50;99.90;;;;;;5062004;28;20048;-62
2022/04/27 13:03:14;;;;;;;0.00;0.00;;;12.50;99.90;;;;;;5061385;28;20264;-61
2022/04/27 13:05:41;;;;;;;0.00;0.00;;;12.60;99.90;;;;;;5060065;28;20547;-62
2022/04/27 13:08:11;;;;;;;0.00;0.00;;;12.60;99.90;;;;;;5059190;28;20037;-62
2022/04/27 13:13:24;;;;;;;0.00;0.00;;;12.40;99.90;;;;;;5060281;28;20132;-62
2022/04/27 13:15:50;;;;;;;0.00;0.00;;;12.50;99.90;;;;;;5050362;28;20578;-63
2022/04/27 13:18:17;;;;;;;0.00;0.00;;;12.60;99.90;;;;;;5047735;28;20506;-62
2022/04/27 13:20:44;;;;;;;0.00;0.00;;;12.70;99.90;;;;;;5046719;28;20041;-62
2022/04/27 13:23:10;;;;;;;0.00;0.00;;;12.70;99.90;;;;;;5047261;28;20043;-61